Lamont, California
Current Conditions -  °F | °C
As of 11:54 PM on Wednesday 22 Oct 2014 (Local Time) from KBFL Reporting Station
Clear Clear  
Wind Chill: 64°   Ceiling: Unl
Heat Index: 64°   Visibility: 10mi
Dew Point: 45°   Wind: 0mph
Humidity: 50%   Direction: NA
Pressure: 30.05"   Gusts: NA
Location:  35.27°N, 118.91°W
Report Text: KBFL 230654Z AUTO 00000KT 10SM CLR 18/07 A3005 RMK AO2 SLP171 T01780072
Loading
Personal Weather Stations






























Interactive Weather Map
Tropical Storm Tracking
New forecast layout! Learn more

10-Day Weather Forecast

Advertisements
Track Severe Weather on mobile